Time;durP1;ratioP1;P1;durP2;ratioP2;P2;SDS_P1;SDS_P2;PMS_P1;PMS_P2;Temp;Humidity;BMP_temperature;BMP_pressure;BME280_temperature;BME280_humidity;BME280_pressure;Samples;Min_cycle;Max_cycle;Signal;HPM_P1;HPM_P2
2023/05/17 00:00:15;;;;;;;10.50;8.07;;;14.20;67.90;;;;;;4983756;28;116580;-80
2023/05/17 00:02:43;;;;;;;7.60;6.80;;;14.20;67.90;;;;;;4984240;28;114640;-81
2023/05/17 00:05:10;;;;;;;8.80;7.50;;;14.20;67.80;;;;;;4985009;28;115077;-81
2023/05/17 00:07:37;;;;;;;9.15;7.95;;;14.20;67.80;;;;;;4983453;28;114674;-80
2023/05/17 00:10:05;;;;;;;9.10;7.40;;;14.30;67.70;;;;;;4983871;28;115019;-81
2023/05/17 00:12:33;;;;;;;10.70;9.70;;;14.40;67.40;;;;;;4984126;28;114814;-81
2023/05/17 00:15:00;;;;;;;8.63;7.72;;;14.40;67.40;;;;;;4984744;28;114582;-81
2023/05/17 00:17:27;;;;;;;11.90;10.02;;;14.30;67.50;;;;;;4983777;28;114442;-82
2023/05/17 00:19:55;;;;;;;10.20;9.20;;;14.30;67.70;;;;;;4982087;28;114945;-81
2023/05/17 00:22:23;;;;;;;8.63;6.45;;;14.20;68.00;;;;;;4983880;28;115296;-82
2023/05/17 00:24:50;;;;;;;8.93;6.80;;;14.20;67.60;;;;;;4999596;28;114316;-82
2023/05/17 00:27:20;;;;;;;8.45;7.55;;;14.10;67.70;;;;;;4984527;28;114440;-81
2023/05/17 00:29:47;;;;;;;9.20;8.20;;;14.00;67.90;;;;;;4983342;28;114928;-81
2023/05/17 00:32:14;;;;;;;8.15;7.20;;;14.00;68.10;;;;;;4982033;28;115514;-82
2023/05/17 00:34:41;;;;;;;7.47;6.57;;;13.90;68.10;;;;;;4983364;28;115051;-81
2023/05/17 00:37:08;;;;;;;7.60;6.80;;;14.00;68.10;;;;;;4983892;28;114214;-81
2023/05/17 00:39:35;;;;;;;8.70;7.90;;;14.10;68.00;;;;;;4982153;28;115465;-81
2023/05/17 00:42:03;;;;;;;7.53;6.68;;;14.20;68.10;;;;;;4965290;28;116661;-81
2023/05/17 00:44:31;;;;;;;6.70;6.05;;;14.20;67.60;;;;;;4966401;28;117370;-81
2023/05/17 00:46:58;;;;;;;7.93;7.13;;;14.20;67.50;;;;;;4998923;28;114529;-80
2023/05/17 00:49:26;;;;;;;9.90;8.70;;;14.10;67.60;;;;;;4983380;28;115345;-81
2023/05/17 00:51:54;;;;;;;7.93;7.13;;;14.10;67.90;;;;;;4966169;28;114745;-82
2023/05/17 00:54:21;;;;;;;8.57;7.78;;;14.00;67.80;;;;;;4983781;28;114417;-82
2023/05/17 00:56:52;;;;;;;8.52;6.90;;;14.00;68.00;;;;;;4983299;28;114508;-82
2023/05/17 00:59:19;;;;;;;8.30;7.40;;;14.00;67.90;;;;;;4982826;28;117118;-81
2023/05/17 01:01:46;;;;;;;10.02;9.02;;;14.00;67.90;;;;;;4966414;28;114633;-81
2023/05/17 01:04:13;;;;;;;10.25;9.25;;;14.00;68.20;;;;;;4967090;28;114492;-81
2023/05/17 01:06:40;;;;;;;9.38;8.30;;;13.90;68.30;;;;;;4966890;28;115001;-81
2023/05/17 01:09:07;;;;;;;9.80;8.88;;;13.90;68.30;;;;;;4982689;28;116439;-81
2023/05/17 01:11:43;;;;;;;8.57;7.68;;;13.90;68.50;;;;;;4982674;28;114703;-80
2023/05/17 01:14:21;;;;;;;7.03;6.32;;;13.90;68.50;;;;;;5000148;28;114223;-82
2023/05/17 01:16:55;;;;;;;6.82;6.13;;;13.90;68.30;;;;;;4951826;28;114619;-81
2023/05/17 01:19:42;;;;;;;7.38;6.53;;;14.00;68.00;;;;;;4982724;28;114894;-81
2023/05/17 01:22:46;;;;;;;9.73;8.32;;;14.20;67.80;;;;;;4983884;28;114677;-81
2023/05/17 01:25:52;;;;;;;10.02;9.10;;;14.20;67.60;;;;;;4981432;28;114385;-81
2023/05/17 01:28:20;;;;;;;7.10;6.40;;;14.20;67.30;;;;;;4973410;28;114563;-81
2023/05/17 01:30:49;;;;;;;8.15;6.65;;;14.00;67.80;;;;;;4982935;28;118211;-81
2023/05/17 01:33:17;;;;;;;8.63;6.97;;;14.00;67.80;;;;;;4966199;28;114843;-81
2023/05/17 01:35:44;;;;;;;6.60;5.88;;;14.00;67.60;;;;;;4983569;28;114384;-81
2023/05/17 01:38:12;;;;;;;6.53;5.28;;;14.00;67.40;;;;;;4984073;28;115106;-81
2023/05/17 01:40:51;;;;;;;7.57;6.05;;;14.00;67.40;;;;;;4998014;28;115059;-81
2023/05/17 01:43:49;;;;;;;6.82;6.10;;;14.00;67.40;;;;;;4951350;28;114656;-81
2023/05/17 01:46:40;;;;;;;6.35;5.30;;;13.90;67.30;;;;;;4974498;28;114516;-81
2023/05/17 01:49:21;;;;;;;7.68;6.10;;;13.80;67.70;;;;;;4971673;28;115504;-82
2023/05/17 01:51:58;;;;;;;7.00;5.85;;;13.70;68.10;;;;;;4982594;28;116739;-82
2023/05/17 01:54:30;;;;;;;6.22;5.63;;;13.60;68.30;;;;;;4982014;28;114595;-82
2023/05/17 01:56:58;;;;;;;6.25;5.28;;;13.60;68.60;;;;;;4983379;28;114249;-81
2023/05/17 01:59:28;;;;;;;6.75;5.57;;;13.70;68.50;;;;;;4974658;28;114560;-81
2023/05/17 02:01:59;;;;;;;5.93;5.30;;;13.70;68.40;;;;;;4985088;28;115034;-82
2023/05/17 02:04:26;;;;;;;6.30;5.35;;;13.70;68.20;;;;;;4982054;28;114544;-82
2023/05/17 02:06:53;;;;;;;7.32;5.47;;;13.70;68.00;;;;;;4982676;28;114491;-81
2023/05/17 02:09:21;;;;;;;6.10;5.30;;;13.70;68.20;;;;;;4992048;28;114654;-81
2023/05/17 02:11:48;;;;;;;6.75;5.18;;;13.70;68.00;;;;;;4981467;28;115651;-81
2023/05/17 02:14:15;;;;;;;6.97;5.38;;;13.80;67.80;;;;;;4965046;28;114689;-81
2023/05/17 02:16:42;;;;;;;5.68;5.07;;;13.80;67.60;;;;;;4983464;28;117653;-81
2023/05/17 02:19:12;;;;;;;6.68;5.40;;;13.90;67.70;;;;;;4952085;28;116094;-81
2023/05/17 02:21:39;;;;;;;5.63;4.97;;;13.80;67.80;;;;;;4984678;28;115097;-81
2023/05/17 02:24:06;;;;;;;6.97;6.28;;;13.90;67.80;;;;;;4984466;28;117887;-81
2023/05/17 02:26:35;;;;;;;5.57;4.72;;;13.80;68.20;;;;;;4984962;28;114552;-82
2023/05/17 02:29:03;;;;;;;6.63;5.78;;;13.80;68.00;;;;;;4986258;28;114403;-81
2023/05/17 02:31:30;;;;;;;6.32;5.38;;;13.80;68.30;;;;;;4986282;28;115200;-82
2023/05/17 02:33:57;;;;;;;7.43;6.38;;;13.90;68.30;;;;;;4984062;28;118682;-81
2023/05/17 02:36:25;;;;;;;4.75;4.15;;;13.90;68.30;;;;;;4985498;28;114832;-81
2023/05/17 02:38:52;;;;;;;6.07;5.47;;;13.90;67.80;;;;;;4986059;28;114429;-82
2023/05/17 02:41:22;;;;;;;5.85;5.00;;;14.10;67.90;;;;;;5001325;28;114957;-82
2023/05/17 02:43:52;;;;;;;6.78;4.82;;;14.10;67.70;;;;;;4953103;28;114650;-83
2023/05/17 02:46:20;;;;;;;4.90;4.40;;;14.20;67.60;;;;;;4985562;28;117470;-82
2023/05/17 02:48:47;;;;;;;8.85;8.05;;;14.20;67.40;;;;;;4968479;28;114593;-82
2023/05/17 02:51:14;;;;;;;7.47;6.75;;;14.30;67.70;;;;;;4983380;28;116006;-82
2023/05/17 02:53:42;;;;;;;4.45;4.05;;;14.20;67.40;;;;;;4983944;28;114608;-82
2023/05/17 02:56:09;;;;;;;4.93;4.43;;;14.20;67.10;;;;;;4968878;28;114278;-82
2023/05/17 02:58:36;;;;;;;5.90;5.10;;;14.30;66.90;;;;;;4985378;28;114390;-82
2023/05/17 03:01:03;;;;;;;5.78;4.90;;;14.30;66.90;;;;;;5000968;28;115037;-82
2023/05/17 03:03:30;;;;;;;6.85;5.30;;;14.20;66.90;;;;;;4977192;28;114618;-82
2023/05/17 03:06:00;;;;;;;7.95;7.15;;;14.20;67.10;;;;;;4985167;28;114553;-82
2023/05/17 03:08:28;;;;;;;5.45;4.95;;;14.20;67.70;;;;;;4985247;28;114623;-81
2023/05/17 03:10:56;;;;;;;6.40;5.72;;;14.20;67.40;;;;;;4982160;28;114888;-82
2023/05/17 03:13:23;;;;;;;7.95;7.22;;;14.20;67.50;;;;;;4980828;28;114666;-82
2023/05/17 03:15:50;;;;;;;5.85;5.25;;;14.20;67.60;;;;;;4984191;28;114215;-82
2023/05/17 03:18:24;;;;;;;5.57;4.95;;;14.10;67.20;;;;;;5001093;28;119505;-82
2023/05/17 03:20:52;;;;;;;5.60;4.72;;;13.90;67.40;;;;;;4985204;28;115437;-81
2023/05/17 03:23:20;;;;;;;4.47;3.83;;;13.70;67.90;;;;;;4984415;28;114791;-81
2023/05/17 03:25:58;;;;;;;4.90;4.40;;;13.70;68.10;;;;;;5001693;28;114406;-81
2023/05/17 03:28:27;;;;;;;4.60;4.10;;;13.60;68.10;;;;;;4984536;28;114389;-80
2023/05/17 03:30:55;;;;;;;5.78;4.15;;;13.70;68.10;;;;;;4980140;28;115143;-80
2023/05/17 03:33:24;;;;;;;4.68;3.88;;;13.70;68.20;;;;;;4965942;28;116684;-81
2023/05/17 03:35:51;;;;;;;8.48;7.68;;;13.70;68.20;;;;;;4984465;28;118456;-81
2023/05/17 03:38:18;;;;;;;7.63;6.82;;;13.80;68.50;;;;;;4984144;28;114593;-81
2023/05/17 03:40:45;;;;;;;5.68;4.97;;;13.80;68.10;;;;;;4999463;28;115221;-81
2023/05/17 03:43:12;;;;;;;7.55;6.22;;;13.80;68.10;;;;;;4966431;28;115226;-81
2023/05/17 03:45:40;;;;;;;7.00;5.00;;;13.70;68.10;;;;;;4967957;28;116381;-82
2023/05/17 03:48:07;;;;;;;7.05;6.13;;;13.60;68.20;;;;;;5000820;28;114508;-81
2023/05/17 03:50:34;;;;;;;7.97;7.20;;;13.50;68.30;;;;;;4982854;28;115511;-81
2023/05/17 03:53:11;;;;;;;10.07;9.05;;;13.50;68.60;;;;;;4968561;28;114880;-81
2023/05/17 03:55:38;;;;;;;6.35;5.10;;;13.60;68.50;;;;;;5000861;28;118847;-81
2023/05/17 03:58:06;;;;;;;6.43;4.82;;;13.50;68.20;;;;;;5000358;28;114543;-82
2023/05/17 04:00:33;;;;;;;6.32;5.65;;;13.40;68.30;;;;;;4998777;28;115087;-82
2023/05/17 04:03:08;;;;;;;6.65;5.85;;;13.40;68.30;;;;;;4997342;28;114721;-82
2023/05/17 04:05:36;;;;;;;8.32;7.53;;;13.30;68.40;;;;;;4983210;28;114642;-82
2023/05/17 04:08:03;;;;;;;7.82;7.03;;;13.30;68.80;;;;;;5013449;28;114188;-80
2023/05/17 04:10:30;;;;;;;9.95;8.95;;;13.30;68.80;;;;;;4985443;28;115706;-81
2023/05/17 04:12:59;;;;;;;7.63;6.85;;;13.30;68.50;;;;;;4965794;28;114579;-81
2023/05/17 04:15:26;;;;;;;6.28;5.45;;;13.20;68.50;;;;;;4983263;28;114592;-82
2023/05/17 04:17:54;;;;;;;5.85;5.03;;;13.00;68.60;;;;;;4947872;28;114502;-82
2023/05/17 04:20:23;;;;;;;5.88;5.13;;;12.90;68.90;;;;;;4973423;28;118346;-81
2023/05/17 04:22:52;;;;;;;5.75;5.05;;;13.00;68.90;;;;;;4980567;28;114819;-82
2023/05/17 04:25:22;;;;;;;8.18;7.38;;;12.80;69.00;;;;;;4966587;28;115161;-81
2023/05/17 04:27:50;;;;;;;10.32;9.32;;;12.80;69.30;;;;;;4978841;28;114599;-81
2023/05/17 04:30:20;;;;;;;8.30;7.13;;;12.80;69.40;;;;;;4964575;28;116686;-81
2023/05/17 04:32:53;;;;;;;11.52;9.07;;;12.70;69.50;;;;;;4996726;28;115360;-80
2023/05/17 04:35:21;;;;;;;8.10;6.43;;;12.70;69.50;;;;;;4965514;28;114357;-80
2023/05/17 04:37:51;;;;;;;8.77;7.38;;;12.80;69.00;;;;;;4992408;28;120261;-80
2023/05/17 04:40:22;;;;;;;10.40;8.07;;;12.70;69.20;;;;;;4980282;28;119110;-81
2023/05/17 04:42:51;;;;;;;7.47;6.72;;;12.70;69.20;;;;;;4977789;28;116078;-81
2023/05/17 04:45:18;;;;;;;7.72;5.45;;;12.60;69.60;;;;;;4998627;28;114549;-80
2023/05/17 04:47:49;;;;;;;7.13;6.20;;;12.70;69.80;;;;;;4982138;28;114834;-81
2023/05/17 04:50:17;;;;;;;7.03;5.90;;;12.80;69.60;;;;;;4998066;28;115124;-81
2023/05/17 04:52:45;;;;;;;5.65;5.00;;;12.90;69.40;;;;;;4981195;28;114784;-81
2023/05/17 04:55:12;;;;;;;8.20;6.60;;;13.00;69.40;;;;;;4981669;28;114552;-81
2023/05/17 04:57:39;;;;;;;8.02;7.22;;;13.10;68.50;;;;;;4962831;28;114442;-82
2023/05/17 05:00:12;;;;;;;7.35;6.45;;;13.00;68.50;;;;;;4972975;28;114938;-81
2023/05/17 05:02:44;;;;;;;9.85;8.73;;;13.00;68.60;;;;;;4982417;28;115127;-81
2023/05/17 05:05:12;;;;;;;9.27;8.32;;;12.90;68.20;;;;;;4983476;28;114609;-82
2023/05/17 05:07:41;;;;;;;8.07;5.90;;;12.90;68.30;;;;;;4999292;28;114241;-82
2023/05/17 05:10:09;;;;;;;7.70;6.90;;;12.80;68.10;;;;;;4964748;28;114951;-81
2023/05/17 05:12:36;;;;;;;12.00;10.85;;;12.70;68.50;;;;;;4976191;28;114760;-81
2023/05/17 05:15:08;;;;;;;10.98;9.68;;;12.70;68.40;;;;;;4981264;28;114448;-82
2023/05/17 05:17:37;;;;;;;11.82;10.30;;;12.60;68.20;;;;;;4982723;28;114636;-81
2023/05/17 05:20:05;;;;;;;9.00;7.68;;;12.50;68.30;;;;;;4981453;28;114908;-82
2023/05/17 05:22:32;;;;;;;11.05;9.95;;;12.40;68.50;;;;;;4995037;28;114581;-81
2023/05/17 05:25:00;;;;;;;8.77;7.88;;;12.30;68.30;;;;;;4981955;28;114509;-83
2023/05/17 05:27:28;;;;;;;6.95;6.00;;;12.20;69.10;;;;;;4983026;28;115058;-83
2023/05/17 05:29:55;;;;;;;7.70;6.75;;;12.20;69.10;;;;;;4994744;28;116447;-81
2023/05/17 05:32:23;;;;;;;5.97;5.13;;;12.30;68.80;;;;;;4981325;28;114639;-82
2023/05/17 05:34:50;;;;;;;7.18;6.28;;;12.20;69.10;;;;;;4981756;28;114727;-80
2023/05/17 05:37:20;;;;;;;6.15;5.55;;;12.20;69.00;;;;;;4999879;28;114410;-82
2023/05/17 05:39:48;;;;;;;6.47;5.63;;;12.30;69.00;;;;;;4997384;28;115169;-81
2023/05/17 05:42:16;;;;;;;8.13;5.72;;;12.30;68.40;;;;;;4980638;28;114650;-80
2023/05/17 05:44:43;;;;;;;7.97;6.25;;;12.50;68.70;;;;;;4949013;28;114589;-81
2023/05/17 05:47:10;;;;;;;6.35;5.57;;;12.50;68.30;;;;;;4976709;28;116466;-81
2023/05/17 05:49:39;;;;;;;9.27;7.97;;;12.70;68.60;;;;;;4981736;28;115113;-80
2023/05/17 05:52:07;;;;;;;8.35;6.50;;;12.80;67.40;;;;;;4991877;28;114744;-80
2023/05/17 05:54:37;;;;;;;6.30;5.63;;;12.80;67.00;;;;;;4963744;28;114703;-81
2023/05/17 05:57:07;;;;;;;7.13;6.22;;;12.70;67.30;;;;;;4985788;28;114492;-81
2023/05/17 05:59:34;;;;;;;6.47;5.60;;;12.60;66.90;;;;;;4994135;28;115195;-79
2023/05/17 06:02:01;;;;;;;8.25;6.10;;;12.60;67.70;;;;;;4998775;28;114769;-82
2023/05/17 06:04:29;;;;;;;7.85;6.47;;;12.40;67.40;;;;;;4985527;28;114792;-80
2023/05/17 06:07:11;;;;;;;6.20;5.13;;;12.30;67.70;;;;;;4986036;28;114446;-80
2023/05/17 06:09:39;;;;;;;8.25;6.70;;;12.30;68.70;;;;;;4984621;28;114762;-79
2023/05/17 06:12:07;;;;;;;6.80;5.70;;;12.30;67.50;;;;;;4984105;28;115337;-80
2023/05/17 06:14:36;;;;;;;8.00;6.63;;;12.30;67.60;;;;;;4983944;28;114420;-81
2023/05/17 06:17:03;;;;;;;9.07;7.85;;;12.30;67.80;;;;;;5006624;28;115259;-80
2023/05/17 06:19:31;;;;;;;10.10;7.57;;;12.30;67.60;;;;;;5003269;28;114597;-81
2023/05/17 06:21:58;;;;;;;10.07;8.40;;;12.20;67.90;;;;;;4985883;28;115345;-82
2023/05/17 06:24:25;;;;;;;11.27;9.27;;;12.20;67.60;;;;;;4984445;28;114332;-80
2023/05/17 06:26:52;;;;;;;8.52;7.65;;;12.20;67.40;;;;;;4986513;28;114423;-81
2023/05/17 06:29:20;;;;;;;8.48;7.45;;;12.10;67.90;;;;;;4982573;28;115554;-80
2023/05/17 06:31:47;;;;;;;9.95;8.73;;;12.10;68.80;;;;;;4983508;28;118079;-81
2023/05/17 06:34:16;;;;;;;7.40;6.57;;;12.20;68.10;;;;;;4985784;28;114441;-81
2023/05/17 06:36:47;;;;;;;10.00;9.00;;;12.20;68.60;;;;;;4985419;28;114825;-81
2023/05/17 06:39:17;;;;;;;10.40;9.23;;;12.30;67.90;;;;;;4984216;28;115024;-81
2023/05/17 06:41:44;;;;;;;10.98;9.80;;;12.30;67.80;;;;;;4983886;28;114503;-80
2023/05/17 06:44:16;;;;;;;11.10;9.65;;;12.30;67.40;;;;;;4984882;28;114620;-80
2023/05/17 06:46:43;;;;;;;8.00;7.00;;;12.20;67.60;;;;;;4985493;28;114411;-81
2023/05/17 06:49:16;;;;;;;9.63;6.30;;;12.20;68.00;;;;;;4983258;28;115190;-80
2023/05/17 06:51:43;;;;;;;11.15;9.70;;;12.20;67.70;;;;;;4984867;28;114603;-80
2023/05/17 06:54:10;;;;;;;11.25;9.13;;;12.20;67.30;;;;;;4984589;28;114370;-80
2023/05/17 06:56:45;;;;;;;7.85;7.05;;;12.20;66.80;;;;;;4984336;28;114578;-79
2023/05/17 06:59:12;;;;;;;6.82;5.53;;;12.10;67.40;;;;;;4984255;28;116546;-80
2023/05/17 07:01:39;;;;;;;8.52;7.07;;;12.00;67.90;;;;;;4984686;28;114617;-79
2023/05/17 07:04:06;;;;;;;9.23;6.53;;;12.10;67.50;;;;;;4984922;28;114430;-79
2023/05/17 07:06:34;;;;;;;8.68;6.80;;;12.20;67.30;;;;;;5000046;28;114421;-80
2023/05/17 07:09:02;;;;;;;8.20;5.97;;;12.20;67.40;;;;;;4983850;28;116315;-80
2023/05/17 07:11:30;;;;;;;9.68;5.88;;;12.10;67.30;;;;;;4983933;28;114701;-81
2023/05/17 07:13:58;;;;;;;7.47;6.22;;;12.20;67.00;;;;;;4985450;28;114215;-80
2023/05/17 07:16:25;;;;;;;8.15;6.25;;;12.30;67.20;;;;;;4983997;28;114465;-80
2023/05/17 07:18:52;;;;;;;12.40;7.78;;;12.20;66.90;;;;;;4983478;28;114964;-79
2023/05/17 07:21:19;;;;;;;8.35;7.22;;;12.20;66.70;;;;;;4984339;28;115825;-79
2023/05/17 07:23:46;;;;;;;10.00;7.93;;;12.20;67.10;;;;;;4985336;28;115051;-79
2023/05/17 07:26:20;;;;;;;8.68;6.00;;;12.20;66.80;;;;;;4984087;28;118051;-80
2023/05/17 07:28:47;;;;;;;12.68;9.45;;;12.20;67.30;;;;;;4999178;28;115326;-80
2023/05/17 07:31:15;;;;;;;11.18;8.80;;;12.20;67.00;;;;;;4982088;28;116759;-79
2023/05/17 07:33:42;;;;;;;7.57;6.75;;;12.30;66.70;;;;;;4984054;28;115485;-78
2023/05/17 07:36:10;;;;;;;10.63;9.52;;;12.30;67.20;;;;;;4985002;28;114235;-79
2023/05/17 07:38:37;;;;;;;10.02;8.80;;;12.50;66.90;;;;;;4982738;28;116794;-80
2023/05/17 07:41:08;;;;;;;8.63;6.82;;;12.60;66.30;;;;;;4984590;28;115019;-79
2023/05/17 07:43:37;;;;;;;9.60;8.65;;;12.50;66.80;;;;;;4999428;28;115242;-80
2023/05/17 07:46:06;;;;;;;9.85;8.85;;;12.60;66.50;;;;;;4950628;28;114636;-79
2023/05/17 07:48:34;;;;;;;9.18;7.95;;;12.70;66.50;;;;;;4984043;28;114964;-80
2023/05/17 07:51:02;;;;;;;12.60;9.55;;;12.80;66.80;;;;;;4983001;28;114839;-81
2023/05/17 07:53:31;;;;;;;10.23;8.93;;;13.00;66.30;;;;;;4985274;28;115061;-81
2023/05/17 07:55:58;;;;;;;6.70;5.60;;;13.10;65.80;;;;;;4984898;28;114470;-80
2023/05/17 07:58:26;;;;;;;7.40;6.38;;;13.20;66.10;;;;;;4999890;28;115016;-80
2023/05/17 08:00:56;;;;;;;9.25;6.85;;;13.20;66.00;;;;;;4983626;28;116051;-81
2023/05/17 08:03:23;;;;;;;11.00;9.82;;;13.30;65.10;;;;;;4985263;28;114318;-79
2023/05/17 08:05:50;;;;;;;9.60;7.60;;;13.30;64.70;;;;;;4988285;28;114573;-80
2023/05/17 08:08:19;;;;;;;13.40;12.07;;;13.30;65.20;;;;;;4982167;28;118256;-80
2023/05/17 08:10:47;;;;;;;12.07;8.88;;;13.40;64.90;;;;;;4998624;28;115693;-79
2023/05/17 08:13:14;;;;;;;14.65;8.68;;;13.30;64.30;;;;;;4984337;28;114545;-81
2023/05/17 08:15:44;;;;;;;9.25;8.05;;;13.20;64.80;;;;;;4998818;28;114564;-80
2023/05/17 08:18:14;;;;;;;10.98;9.32;;;13.20;65.10;;;;;;4966516;28;117076;-79
2023/05/17 08:20:45;;;;;;;11.38;9.40;;;13.00;64.70;;;;;;4983302;28;114622;-80
2023/05/17 08:23:12;;;;;;;11.77;6.80;;;12.90;64.90;;;;;;4984642;28;114248;-81
2023/05/17 08:25:42;;;;;;;10.02;8.15;;;12.90;65.20;;;;;;4983869;28;114408;-81
2023/05/17 08:28:09;;;;;;;12.88;11.05;;;12.90;65.40;;;;;;4983721;28;115879;-80
2023/05/17 08:30:36;;;;;;;11.25;9.50;;;13.00;65.20;;;;;;4988567;28;114754;-80
2023/05/17 08:33:03;;;;;;;12.82;9.68;;;13.10;65.10;;;;;;5000349;28;114619;-79
2023/05/17 08:35:30;;;;;;;9.07;7.03;;;13.20;64.70;;;;;;4979240;28;114528;-81
2023/05/17 08:37:58;;;;;;;12.13;10.50;;;13.10;64.70;;;;;;4982083;28;114998;-81
2023/05/17 08:40:26;;;;;;;11.65;9.88;;;13.00;64.40;;;;;;4983248;28;115167;-81
2023/05/17 08:42:54;;;;;;;8.82;7.15;;;13.00;64.30;;;;;;4982923;28;114326;-80
2023/05/17 08:45:21;;;;;;;7.30;5.43;;;12.80;64.70;;;;;;4981819;28;114691;-80
2023/05/17 08:47:49;;;;;;;9.80;6.60;;;12.70;65.50;;;;;;4979103;28;115640;-81
2023/05/17 08:50:17;;;;;;;10.68;8.50;;;12.80;65.50;;;;;;4976783;28;115825;-80
2023/05/17 08:52:45;;;;;;;11.38;6.88;;;12.90;65.00;;;;;;4984395;28;114555;-81
2023/05/17 08:55:15;;;;;;;11.63;10.27;;;13.10;64.80;;;;;;4984935;28;114286;-81
2023/05/17 08:57:42;;;;;;;8.90;7.63;;;13.20;64.10;;;;;;4982356;28;116087;-80
2023/05/17 09:00:13;;;;;;;8.68;7.78;;;13.20;64.20;;;;;;4981358;28;114723;-80
2023/05/17 09:02:43;;;;;;;10.45;8.65;;;13.10;64.00;;;;;;4983162;28;114408;-81
2023/05/17 09:05:13;;;;;;;8.50;7.32;;;12.90;63.80;;;;;;4984440;28;114452;-81
2023/05/17 09:07:43;;;;;;;9.75;6.55;;;12.80;64.20;;;;;;4998501;28;114827;-80
2023/05/17 09:10:12;;;;;;;6.72;4.85;;;12.60;64.80;;;;;;4948618;28;114689;-78
2023/05/17 09:12:39;;;;;;;6.70;5.10;;;12.60;65.60;;;;;;5000470;28;114221;-82
2023/05/17 09:15:16;;;;;;;10.38;6.38;;;12.70;65.70;;;;;;4996519;28;114686;-80
2023/05/17 09:17:47;;;;;;;;;;;12.80;65.40;;;;;;4981326;28;114926;-80
2023/05/17 09:20:14;;;;;;;6.45;5.15;;;12.70;64.90;;;;;;4982105;28;114754;-81
2023/05/17 09:22:43;;;;;;;8.82;6.47;;;12.70;65.50;;;;;;4947850;28;116230;-81
2023/05/17 09:25:10;;;;;;;8.13;5.57;;;12.90;64.60;;;;;;4980708;28;114240;-82
2023/05/17 09:27:37;;;;;;;8.77;6.43;;;12.90;64.90;;;;;;4976348;28;117702;-81
2023/05/17 09:30:09;;;;;;;10.00;6.07;;;12.90;64.70;;;;;;4986059;28;114736;-81
2023/05/17 09:32:43;;;;;;;7.22;5.50;;;13.00;64.80;;;;;;4985562;28;118113;-80
2023/05/17 09:35:10;;;;;;;8.85;6.43;;;13.00;65.40;;;;;;4985053;28;114538;-81
2023/05/17 09:37:38;;;;;;;9.77;8.55;;;13.10;64.40;;;;;;4979572;28;118734;-80
2023/05/17 09:40:06;;;;;;;12.57;9.73;;;13.10;64.30;;;;;;4980916;28;115702;-80
2023/05/17 09:42:37;;;;;;;7.78;6.60;;;13.10;64.50;;;;;;4984493;28;114452;-80
2023/05/17 09:45:05;;;;;;;8.25;6.03;;;13.00;64.50;;;;;;4985785;28;115718;-80
2023/05/17 09:47:36;;;;;;;9.35;6.10;;;13.00;64.70;;;;;;4982874;28;118633;-81
2023/05/17 09:50:04;;;;;;;8.05;6.45;;;13.00;64.80;;;;;;4984294;28;117717;-78
2023/05/17 09:52:34;;;;;;;8.82;7.18;;;12.80;64.30;;;;;;5001474;28;114469;-80
2023/05/17 09:55:01;;;;;;;10.45;8.38;;;12.70;64.60;;;;;;4985716;28;115049;-81
2023/05/17 09:57:37;;;;;;;8.18;6.43;;;12.70;64.70;;;;;;4985888;28;115094;-81
2023/05/17 10:00:12;;;;;;;7.97;6.88;;;12.70;65.60;;;;;;4964009;28;118079;-79
2023/05/17 10:02:42;;;;;;;8.68;7.47;;;12.60;65.50;;;;;;4986870;28;119456;-81
2023/05/17 10:05:10;;;;;;;9.32;7.43;;;12.70;65.00;;;;;;4985755;28;114375;-80
2023/05/17 10:07:38;;;;;;;10.10;8.35;;;12.60;64.80;;;;;;4984324;28;114915;-80
2023/05/17 10:10:07;;;;;;;9.57;8.05;;;12.60;64.70;;;;;;4986073;28;115117;-81
2023/05/17 10:12:34;;;;;;;10.80;7.70;;;12.50;64.80;;;;;;4984825;28;114634;-81
2023/05/17 10:15:03;;;;;;;9.65;6.70;;;12.50;65.30;;;;;;4983492;28;114263;-81
2023/05/17 10:17:32;;;;;;;12.80;10.95;;;12.50;65.60;;;;;;4983930;28;114957;-81
2023/05/17 10:19:59;;;;;;;11.80;10.60;;;12.50;65.00;;;;;;4984372;28;114588;-79
2023/05/17 10:22:27;;;;;;;12.70;11.30;;;12.30;65.10;;;;;;4980656;28;114452;-81
2023/05/17 10:24:55;;;;;;;12.77;10.52;;;12.40;65.70;;;;;;4984933;28;116074;-81
2023/05/17 10:27:22;;;;;;;14.80;13.25;;;12.50;65.60;;;;;;4981311;28;114983;-80
2023/05/17 10:29:50;;;;;;;10.15;9.07;;;12.50;65.10;;;;;;4984857;28;115140;-80
2023/05/17 10:32:18;;;;;;;17.15;15.45;;;12.60;65.60;;;;;;4984561;28;114562;-80
2023/05/17 10:34:48;;;;;;;12.40;11.10;;;12.60;65.00;;;;;;4984633;28;115181;-80
2023/05/17 10:37:33;;;;;;;16.38;14.75;;;12.70;65.10;;;;;;4991088;28;114881;-81
2023/05/17 10:40:01;;;;;;;11.88;10.63;;;12.60;64.60;;;;;;4998728;28;115322;-81
2023/05/17 10:42:33;;;;;;;10.85;9.75;;;12.60;65.20;;;;;;4985000;28;114407;-80
2023/05/17 10:45:27;;;;;;;14.13;11.63;;;12.70;65.40;;;;;;4979747;28;114491;-81
2023/05/17 10:47:59;;;;;;;;;;;12.70;65.30;;;;;;4964624;28;114978;-81
2023/05/17 10:50:41;;;;;;;16.95;15.13;;;12.70;65.00;;;;;;4966150;28;115132;-80
2023/05/17 10:53:32;;;;;;;13.32;11.65;;;12.70;64.50;;;;;;4948024;28;114676;-80
2023/05/17 10:56:03;;;;;;;15.77;12.50;;;12.60;64.80;;;;;;4956582;28;116143;-81
2023/05/17 10:58:30;;;;;;;18.50;16.60;;;12.70;65.00;;;;;;4962038;28;114700;-81
2023/05/17 11:00:57;;;;;;;14.85;12.38;;;12.70;64.70;;;;;;4946689;28;114960;-81
2023/05/17 11:03:28;;;;;;;15.00;13.43;;;12.90;64.80;;;;;;4962077;28;115598;-81
2023/05/17 11:06:17;;;;;;;19.35;16.35;;;13.10;64.40;;;;;;4964314;28;114672;-80
2023/05/17 11:09:13;;;;;;;10.90;9.55;;;13.20;63.70;;;;;;4981578;28;114887;-80
2023/05/17 11:12:04;;;;;;;20.33;16.38;;;13.10;63.80;;;;;;4982091;28;114783;-79
2023/05/17 11:14:43;;;;;;;17.45;15.30;;;12.90;63.20;;;;;;4981524;28;114580;-81
2023/05/17 11:17:14;;;;;;;16.17;13.55;;;12.70;64.10;;;;;;4982669;28;114512;-79
2023/05/17 11:20:10;;;;;;;21.05;17.33;;;12.60;64.80;;;;;;4982358;28;115101;-79
2023/05/17 11:23:05;;;;;;;20.55;18.40;;;12.60;64.60;;;;;;4997216;28;115226;-80
2023/05/17 11:25:37;;;;;;;14.52;11.20;;;12.60;64.60;;;;;;4982886;28;115624;-80
2023/05/17 11:28:09;;;;;;;19.13;16.90;;;12.70;65.10;;;;;;5000756;28;114576;-81
2023/05/17 11:30:50;;;;;;;16.65;14.90;;;12.80;64.50;;;;;;4982363;28;115157;-79
2023/05/17 11:33:25;;;;;;;13.05;11.68;;;13.00;64.00;;;;;;4998650;28;115187;-79
2023/05/17 11:36:18;;;;;;;11.65;9.25;;;12.90;64.00;;;;;;4981894;28;114397;-81
2023/05/17 11:38:49;;;;;;;11.07;8.93;;;12.90;64.30;;;;;;4998906;28;114405;-81
2023/05/17 11:41:30;;;;;;;18.77;14.02;;;12.80;64.60;;;;;;4997363;28;116488;-80
2023/05/17 11:43:58;;;;;;;10.80;8.32;;;12.90;63.60;;;;;;4981503;28;114702;-81
2023/05/17 11:46:29;;;;;;;16.13;14.48;;;12.80;64.40;;;;;;4984442;28;114364;-81
2023/05/17 11:48:57;;;;;;;18.58;15.27;;;12.70;64.00;;;;;;5000103;28;115668;-81
2023/05/17 11:51:24;;;;;;;16.42;13.13;;;12.70;63.90;;;;;;4998882;28;115536;-80
2023/05/17 11:53:54;;;;;;;15.63;12.60;;;12.60;64.30;;;;;;4983804;28;116400;-80
2023/05/17 11:56:35;;;;;;;18.60;16.35;;;12.70;64.50;;;;;;5001149;28;117811;-80
2023/05/17 11:59:11;;;;;;;18.88;16.38;;;12.70;63.90;;;;;;4985925;28;114550;-80
2023/05/17 12:01:48;;;;;;;11.27;9.43;;;12.70;63.80;;;;;;4978400;28;115946;-80
2023/05/17 12:04:25;;;;;;;13.73;12.25;;;12.60;64.80;;;;;;4976818;28;114728;-80
2023/05/17 12:06:57;;;;;;;16.38;12.13;;;12.60;64.30;;;;;;4999936;28;114562;-81
2023/05/17 12:09:25;;;;;;;21.55;17.40;;;12.60;64.50;;;;;;4999026;28;114651;-81
2023/05/17 12:11:52;;;;;;;19.08;17.05;;;12.60;63.60;;;;;;4998564;28;115347;-81
2023/05/17 12:14:28;;;;;;;16.17;14.02;;;12.60;63.70;;;;;;4997590;28;116221;-80
2023/05/17 12:16:55;;;;;;;20.27;16.88;;;12.70;64.10;;;;;;4983763;28;114547;-80
2023/05/17 12:19:28;;;;;;;14.32;11.15;;;12.80;63.60;;;;;;4985348;28;114532;-80
2023/05/17 12:22:13;;;;;;;13.23;8.80;;;12.80;63.60;;;;;;4983611;28;117399;-80
2023/05/17 12:24:41;;;;;;;15.15;12.18;;;12.80;64.20;;;;;;4982744;28;114679;-80
2023/05/17 12:27:11;;;;;;;14.02;10.98;;;12.80;63.50;;;;;;4982986;28;114931;-80
2023/05/17 12:29:40;;;;;;;16.98;13.15;;;12.70;63.60;;;;;;4984188;28;114496;-81
2023/05/17 12:32:18;;;;;;;14.40;11.10;;;12.80;63.60;;;;;;4982967;28;115217;-81
2023/05/17 12:34:46;;;;;;;19.77;15.85;;;12.90;63.80;;;;;;4964628;28;115006;-81
2023/05/17 12:37:14;;;;;;;16.45;12.13;;;12.90;62.80;;;;;;4965056;28;114800;-80
2023/05/17 12:39:41;;;;;;;17.23;14.35;;;12.70;63.50;;;;;;4996632;28;115378;-81
2023/05/17 12:42:12;;;;;;;19.40;16.75;;;12.70;63.50;;;;;;4984418;28;114932;-81
2023/05/17 12:44:40;;;;;;;14.20;10.93;;;12.80;63.50;;;;;;4995000;28;115830;-80